sensor_id;sensor_type;location;lat;lon;timestamp;temperature;humidity
16412;DHT22;8315;52.104;6.304;2022-10-15T00:00:34;12.10;98.40
16412;DHT22;8315;52.104;6.304;2022-10-15T00:03:01;12.00;98.40
16412;DHT22;8315;52.104;6.304;2022-10-15T00:05:28;12.00;98.40
16412;DHT22;8315;52.104;6.304;2022-10-15T00:07:56;11.90;98.40
16412;DHT22;8315;52.104;6.304;2022-10-15T00:10:23;11.90;98.40
16412;DHT22;8315;52.104;6.304;2022-10-15T00:12:50;11.90;98.40
16412;DHT22;8315;52.104;6.304;2022-10-15T00:15:16;11.80;98.40
16412;DHT22;8315;52.104;6.304;2022-10-15T00:17:43;11.80;98.40
16412;DHT22;8315;52.104;6.304;2022-10-15T00:20:10;11.70;98.40
16412;DHT22;8315;52.104;6.304;2022-10-15T00:22:38;11.60;98.40
16412;DHT22;8315;52.104;6.304;2022-10-15T00:25:06;11.70;98.40
16412;DHT22;8315;52.104;6.304;2022-10-15T00:27:34;11.70;98.40
16412;DHT22;8315;52.104;6.304;2022-10-15T00:30:02;11.70;98.40
16412;DHT22;8315;52.104;6.304;2022-10-15T00:32:30;11.80;98.40
16412;DHT22;8315;52.104;6.304;2022-10-15T00:34:57;11.80;98.40
16412;DHT22;8315;52.104;6.304;2022-10-15T00:37:23;11.90;98.40
16412;DHT22;8315;52.104;6.304;2022-10-15T00:39:50;11.80;98.40
16412;DHT22;8315;52.104;6.304;2022-10-15T00:42:18;11.80;98.40
16412;DHT22;8315;52.104;6.304;2022-10-15T00:44:49;11.80;98.40
16412;DHT22;8315;52.104;6.304;2022-10-15T00:47:25;11.80;98.40
16412;DHT22;8315;52.104;6.304;2022-10-15T00:49:58;11.80;98.40
16412;DHT22;8315;52.104;6.304;2022-10-15T00:52:31;11.80;98.40
16412;DHT22;8315;52.104;6.304;2022-10-15T00:55:04;11.90;98.40
16412;DHT22;8315;52.104;6.304;2022-10-15T00:57:35;11.90;98.40
16412;DHT22;8315;52.104;6.304;2022-10-15T01:00:04;11.90;98.40
16412;DHT22;8315;52.104;6.304;2022-10-15T01:02:34;12.00;98.40
16412;DHT22;8315;52.104;6.304;2022-10-15T01:05:01;11.90;98.40
16412;DHT22;8315;52.104;6.304;2022-10-15T01:07:28;11.90;98.40
16412;DHT22;8315;52.104;6.304;2022-10-15T01:09:55;11.90;98.40
16412;DHT22;8315;52.104;6.304;2022-10-15T01:12:25;11.90;98.40
16412;DHT22;8315;52.104;6.304;2022-10-15T01:15:00;11.90;98.40
16412;DHT22;8315;52.104;6.304;2022-10-15T01:17:32;11.90;98.40
16412;DHT22;8315;52.104;6.304;2022-10-15T01:20:10;12.00;98.40
16412;DHT22;8315;52.104;6.304;2022-10-15T01:22:50;12.00;98.40
16412;DHT22;8315;52.104;6.304;2022-10-15T01:25:28;11.90;98.40
16412;DHT22;8315;52.104;6.304;2022-10-15T01:28:00;11.90;98.40
16412;DHT22;8315;52.104;6.304;2022-10-15T01:30:34;11.90;98.40
16412;DHT22;8315;52.104;6.304;2022-10-15T01:35:53;11.90;98.40
16412;DHT22;8315;52.104;6.304;2022-10-15T01:38:34;11.80;98.40
16412;DHT22;8315;52.104;6.304;2022-10-15T01:41:07;11.80;98.40
16412;DHT22;8315;52.104;6.304;2022-10-15T01:43:36;11.90;98.40
16412;DHT22;8315;52.104;6.304;2022-10-15T01:46:24;11.90;98.40
16412;DHT22;8315;52.104;6.304;2022-10-15T01:49:02;11.90;98.40
16412;DHT22;8315;52.104;6.304;2022-10-15T01:51:30;11.90;98.40
16412;DHT22;8315;52.104;6.304;2022-10-15T01:53:59;11.80;98.40
16412;DHT22;8315;52.104;6.304;2022-10-15T01:56:26;11.80;98.40
16412;DHT22;8315;52.104;6.304;2022-10-15T01:58:54;11.80;98.40
16412;DHT22;8315;52.104;6.304;2022-10-15T02:01:21;11.80;98.40
16412;DHT22;8315;52.104;6.304;2022-10-15T02:03:50;11.80;98.40
16412;DHT22;8315;52.104;6.304;2022-10-15T02:06:19;11.70;98.40
16412;DHT22;8315;52.104;6.304;2022-10-15T02:08:56;11.70;98.40
16412;DHT22;8315;52.104;6.304;2022-10-15T02:11:27;11.50;98.40
16412;DHT22;8315;52.104;6.304;2022-10-15T02:13:56;11.60;98.40
16412;DHT22;8315;52.104;6.304;2022-10-15T02:16:26;11.70;98.40
16412;DHT22;8315;52.104;6.304;2022-10-15T02:18:58;11.60;98.40
16412;DHT22;8315;52.104;6.304;2022-10-15T02:21:28;11.50;98.40
16412;DHT22;8315;52.104;6.304;2022-10-15T02:24:01;11.50;98.40
16412;DHT22;8315;52.104;6.304;2022-10-15T02:26:31;11.50;98.40
16412;DHT22;8315;52.104;6.304;2022-10-15T02:29:00;11.50;98.40
16412;DHT22;8315;52.104;6.304;2022-10-15T02:31:28;11.50;98.40
16412;DHT22;8315;52.104;6.304;2022-10-15T02:34:00;11.50;98.40
16412;DHT22;8315;52.104;6.304;2022-10-15T02:36:29;11.50;98.40
16412;DHT22;8315;52.104;6.304;2022-10-15T02:38:56;11.50;98.40
16412;DHT22;8315;52.104;6.304;2022-10-15T02:41:23;11.60;98.40
16412;DHT22;8315;52.104;6.304;2022-10-15T02:43:50;11.70;98.40
16412;DHT22;8315;52.104;6.304;2022-10-15T02:46:16;11.70;98.40
16412;DHT22;8315;52.104;6.304;2022-10-15T02:48:44;11.80;98.40
16412;DHT22;8315;52.104;6.304;2022-10-15T02:51:16;11.90;98.40
16412;DHT22;8315;52.104;6.304;2022-10-15T02:53:43;11.90;98.40
16412;DHT22;8315;52.104;6.304;2022-10-15T02:56:10;11.90;98.40
16412;DHT22;8315;52.104;6.304;2022-10-15T02:58:37;11.90;98.40
16412;DHT22;8315;52.104;6.304;2022-10-15T03:01:05;11.80;98.40
16412;DHT22;8315;52.104;6.304;2022-10-15T03:03:32;11.90;98.40
16412;DHT22;8315;52.104;6.304;2022-10-15T03:05:59;11.90;98.40
16412;DHT22;8315;52.104;6.304;2022-10-15T03:08:28;12.00;98.40
16412;DHT22;8315;52.104;6.304;2022-10-15T03:10:55;11.90;98.40
16412;DHT22;8315;52.104;6.304;2022-10-15T03:13:24;11.90;98.40
16412;DHT22;8315;52.104;6.304;2022-10-15T03:15:51;11.90;98.40
16412;DHT22;8315;52.104;6.304;2022-10-15T03:18:20;11.80;98.40
16412;DHT22;8315;52.104;6.304;2022-10-15T03:20:51;11.90;98.40
16412;DHT22;8315;52.104;6.304;2022-10-15T03:23:19;11.90;98.40
16412;DHT22;8315;52.104;6.304;2022-10-15T03:25:47;12.00;98.40
16412;DHT22;8315;52.104;6.304;2022-10-15T03:28:20;12.00;98.40
16412;DHT22;8315;52.104;6.304;2022-10-15T03:30:47;12.00;98.40
16412;DHT22;8315;52.104;6.304;2022-10-15T03:33:15;12.00;98.40
16412;DHT22;8315;52.104;6.304;2022-10-15T03:35:42;12.10;98.40
16412;DHT22;8315;52.104;6.304;2022-10-15T03:38:09;12.10;98.40
16412;DHT22;8315;52.104;6.304;2022-10-15T03:40:36;12.10;98.40
16412;DHT22;8315;52.104;6.304;2022-10-15T03:43:17;12.10;98.40
16412;DHT22;8315;52.104;6.304;2022-10-15T03:45:43;12.10;98.40
16412;DHT22;8315;52.104;6.304;2022-10-15T03:48:18;12.10;98.40
16412;DHT22;8315;52.104;6.304;2022-10-15T03:50:45;12.10;98.40
16412;DHT22;8315;52.104;6.304;2022-10-15T03:53:13;12.10;98.40
16412;DHT22;8315;52.104;6.304;2022-10-15T03:55:40;12.00;98.40
16412;DHT22;8315;52.104;6.304;2022-10-15T03:58:08;12.00;98.40
16412;DHT22;8315;52.104;6.304;2022-10-15T04:00:41;12.00;98.40
16412;DHT22;8315;52.104;6.304;2022-10-15T04:03:09;12.00;98.40
16412;DHT22;8315;52.104;6.304;2022-10-15T04:05:36;12.00;98.40
16412;DHT22;8315;52.104;6.304;2022-10-15T04:08:05;12.00;98.40
16412;DHT22;8315;52.104;6.304;2022-10-15T04:10:36;11.80;98.40
16412;DHT22;8315;52.104;6.304;2022-10-15T04:13:03;11.80;98.40
16412;DHT22;8315;52.104;6.304;2022-10-15T04:15:32;11.80;98.40
16412;DHT22;8315;52.104;6.304;2022-10-15T04:18:05;11.80;98.40
16412;DHT22;8315;52.104;6.304;2022-10-15T04:20:32;11.70;98.40
16412;DHT22;8315;52.104;6.304;2022-10-15T04:23:19;11.80;98.40
16412;DHT22;8315;52.104;6.304;2022-10-15T04:26:06;11.80;98.40
16412;DHT22;8315;52.104;6.304;2022-10-15T04:28:33;11.80;98.40
16412;DHT22;8315;52.104;6.304;2022-10-15T04:31:00;11.80;98.40
16412;DHT22;8315;52.104;6.304;2022-10-15T04:33:29;11.80;98.40
16412;DHT22;8315;52.104;6.304;2022-10-15T04:35:58;11.80;98.40
16412;DHT22;8315;52.104;6.304;2022-10-15T04:38:41;11.80;98.40
16412;DHT22;8315;52.104;6.304;2022-10-15T04:41:09;11.80;98.40
16412;DHT22;8315;52.104;6.304;2022-10-15T04:43:53;11.90;98.40
16412;DHT22;8315;52.104;6.304;2022-10-15T04:46:21;11.80;98.40
16412;DHT22;8315;52.104;6.304;2022-10-15T04:48:51;11.80;98.40
16412;DHT22;8315;52.104;6.304;2022-10-15T04:51:22;11.80;98.40
16412;DHT22;8315;52.104;6.304;2022-10-15T04:54:01;11.70;98.40
16412;DHT22;8315;52.104;6.304;2022-10-15T04:56:29;11.80;98.40
16412;DHT22;8315;52.104;6.304;2022-10-15T04:58:56;11.80;98.40
16412;DHT22;8315;52.104;6.304;2022-10-15T05:01:26;11.80;98.40
16412;DHT22;8315;52.104;6.304;2022-10-15T05:03:59;11.80;98.40
16412;DHT22;8315;52.104;6.304;2022-10-15T05:06:27;11.90;98.40
16412;DHT22;8315;52.104;6.304;2022-10-15T05:09:00;12.00;98.40
16412;DHT22;8315;52.104;6.304;2022-10-15T05:11:29;12.00;98.40
16412;DHT22;8315;52.104;6.304;2022-10-15T05:13:57;12.00;98.40
16412;DHT22;8315;52.104;6.304;2022-10-15T05:16:26;12.00;98.40
16412;DHT22;8315;52.104;6.304;2022-10-15T05:18:56;12.00;98.40
16412;DHT22;8315;52.104;6.304;2022-10-15T05:21:25;12.00;98.40
16412;DHT22;8315;52.104;6.304;2022-10-15T05:23:56;12.00;98.40
16412;DHT22;8315;52.104;6.304;2022-10-15T05:26:42;12.00;98.40
16412;DHT22;8315;52.104;6.304;2022-10-15T05:29:09;12.00;98.40
16412;DHT22;8315;52.104;6.304;2022-10-15T05:31:37;12.10;98.40
16412;DHT22;8315;52.104;6.304;2022-10-15T05:34:12;12.10;98.40
16412;DHT22;8315;52.104;6.304;2022-10-15T05:36:58;12.20;98.40
16412;DHT22;8315;52.104;6.304;2022-10-15T05:39:24;12.20;98.40
16412;DHT22;8315;52.104;6.304;2022-10-15T05:41:53;12.20;98.40
16412;DHT22;8315;52.104;6.304;2022-10-15T05:44:28;12.10;98.40
16412;DHT22;8315;52.104;6.304;2022-10-15T05:46:54;12.10;98.40
16412;DHT22;8315;52.104;6.304;2022-10-15T05:49:22;12.10;98.40
16412;DHT22;8315;52.104;6.304;2022-10-15T05:51:58;12.20;98.40
16412;DHT22;8315;52.104;6.304;2022-10-15T05:54:48;12.10;98.40
16412;DHT22;8315;52.104;6.304;2022-10-15T05:57:14;12.20;98.40
16412;DHT22;8315;52.104;6.304;2022-10-15T05:59:41;12.20;98.40
16412;DHT22;8315;52.104;6.304;2022-10-15T06:02:08;12.20;98.40
16412;DHT22;8315;52.104;6.304;2022-10-15T06:04:40;12.30;98.40
16412;DHT22;8315;52.104;6.304;2022-10-15T06:07:08;12.30;98.40
16412;DHT22;8315;52.104;6.304;2022-10-15T06:09:35;12.30;98.40
16412;DHT22;8315;52.104;6.304;2022-10-15T06:12:02;12.30;98.40
16412;DHT22;8315;52.104;6.304;2022-10-15T06:14:29;12.30;98.40
16412;DHT22;8315;52.104;6.304;2022-10-15T06:16:56;12.40;98.40
16412;DHT22;8315;52.104;6.304;2022-10-15T06:19:23;12.30;98.40
16412;DHT22;8315;52.104;6.304;2022-10-15T06:21:50;12.40;98.40
16412;DHT22;8315;52.104;6.304;2022-10-15T06:24:18;12.40;98.40
16412;DHT22;8315;52.104;6.304;2022-10-15T06:26:44;12.40;98.40
16412;DHT22;8315;52.104;6.304;2022-10-15T06:29:11;12.50;98.40
16412;DHT22;8315;52.104;6.304;2022-10-15T06:31:38;12.50;98.40
16412;DHT22;8315;52.104;6.304;2022-10-15T06:34:05;12.60;98.40
16412;DHT22;8315;52.104;6.304;2022-10-15T06:36:32;12.60;98.40
16412;DHT22;8315;52.104;6.304;2022-10-15T06:38:59;12.60;98.40
16412;DHT22;8315;52.104;6.304;2022-10-15T06:41:27;12.60;98.40
16412;DHT22;8315;52.104;6.304;2022-10-15T06:43:54;12.70;98.40
16412;DHT22;8315;52.104;6.304;2022-10-15T06:46:20;12.70;98.40
16412;DHT22;8315;52.104;6.304;2022-10-15T06:48:47;12.70;98.40
16412;DHT22;8315;52.104;6.304;2022-10-15T06:51:16;12.70;98.40
16412;DHT22;8315;52.104;6.304;2022-10-15T06:53:48;12.70;98.40
16412;DHT22;8315;52.104;6.304;2022-10-15T06:56:15;12.70;98.40
16412;DHT22;8315;52.104;6.304;2022-10-15T06:58:44;12.70;98.40
16412;DHT22;8315;52.104;6.304;2022-10-15T07:01:11;12.70;98.40
16412;DHT22;8315;52.104;6.304;2022-10-15T07:03:38;12.70;98.40
16412;DHT22;8315;52.104;6.304;2022-10-15T07:06:06;12.70;98.40
16412;DHT22;8315;52.104;6.304;2022-10-15T07:08:34;12.70;98.40
16412;DHT22;8315;52.104;6.304;2022-10-15T07:11:02;12.80;98.40
16412;DHT22;8315;52.104;6.304;2022-10-15T07:13:30;12.80;98.40
16412;DHT22;8315;52.104;6.304;2022-10-15T07:16:03;12.80;98.40
16412;DHT22;8315;52.104;6.304;2022-10-15T07:18:31;12.90;98.40
16412;DHT22;8315;52.104;6.304;2022-10-15T07:20:57;12.90;98.40
16412;DHT22;8315;52.104;6.304;2022-10-15T07:23:24;12.90;98.40
16412;DHT22;8315;52.104;6.304;2022-10-15T07:25:51;12.90;98.40
16412;DHT22;8315;52.104;6.304;2022-10-15T07:28:18;13.00;98.40
16412;DHT22;8315;52.104;6.304;2022-10-15T07:30:44;13.00;98.40
16412;DHT22;8315;52.104;6.304;2022-10-15T07:33:13;12.90;98.40
16412;DHT22;8315;52.104;6.304;2022-10-15T07:35:43;12.90;98.40
16412;DHT22;8315;52.104;6.304;2022-10-15T07:38:10;13.00;98.40
16412;DHT22;8315;52.104;6.304;2022-10-15T07:40:37;13.00;98.40
16412;DHT22;8315;52.104;6.304;2022-10-15T07:43:03;13.00;98.40
16412;DHT22;8315;52.104;6.304;2022-10-15T07:45:30;13.00;98.40
16412;DHT22;8315;52.104;6.304;2022-10-15T07:47:57;13.00;98.40
16412;DHT22;8315;52.104;6.304;2022-10-15T07:50:34;13.10;98.40
16412;DHT22;8315;52.104;6.304;2022-10-15T07:54:01;13.10;98.40
16412;DHT22;8315;52.104;6.304;2022-10-15T07:57:13;13.10;98.40
16412;DHT22;8315;52.104;6.304;2022-10-15T08:00:41;13.20;98.40
16412;DHT22;8315;52.104;6.304;2022-10-15T08:04:03;13.10;98.40
16412;DHT22;8315;52.104;6.304;2022-10-15T08:07:44;13.20;98.40
16412;DHT22;8315;52.104;6.304;2022-10-15T08:11:05;13.20;98.40
16412;DHT22;8315;52.104;6.304;2022-10-15T08:17:58;13.30;98.40
16412;DHT22;8315;52.104;6.304;2022-10-15T08:21:28;13.30;98.40
16412;DHT22;8315;52.104;6.304;2022-10-15T08:24:16;13.40;98.40
16412;DHT22;8315;52.104;6.304;2022-10-15T08:30:21;13.50;98.40
16412;DHT22;8315;52.104;6.304;2022-10-15T08:32:48;13.60;98.40
16412;DHT22;8315;52.104;6.304;2022-10-15T08:35:15;13.60;98.40
16412;DHT22;8315;52.104;6.304;2022-10-15T08:37:42;13.70;98.40
16412;DHT22;8315;52.104;6.304;2022-10-15T08:40:11;13.70;98.40
16412;DHT22;8315;52.104;6.304;2022-10-15T08:42:40;13.70;98.40
16412;DHT22;8315;52.104;6.304;2022-10-15T08:45:09;13.70;98.40
16412;DHT22;8315;52.104;6.304;2022-10-15T08:47:42;13.80;98.40
16412;DHT22;8315;52.104;6.304;2022-10-15T08:50:15;13.80;98.40
16412;DHT22;8315;52.104;6.304;2022-10-15T08:52:45;13.90;98.40
16412;DHT22;8315;52.104;6.304;2022-10-15T08:55:15;13.90;98.40
16412;DHT22;8315;52.104;6.304;2022-10-15T08:57:44;14.00;98.40
16412;DHT22;8315;52.104;6.304;2022-10-15T09:00:16;14.00;98.40
16412;DHT22;8315;52.104;6.304;2022-10-15T09:02:46;14.20;98.40
16412;DHT22;8315;52.104;6.304;2022-10-15T09:05:24;14.30;98.40
16412;DHT22;8315;52.104;6.304;2022-10-15T09:07:55;14.30;98.40
16412;DHT22;8315;52.104;6.304;2022-10-15T09:10:33;14.30;98.40
16412;DHT22;8315;52.104;6.304;2022-10-15T09:13:03;14.40;98.40
16412;DHT22;8315;52.104;6.304;2022-10-15T09:15:35;14.40;98.40
16412;DHT22;8315;52.104;6.304;2022-10-15T09:18:03;14.40;98.40
16412;DHT22;8315;52.104;6.304;2022-10-15T09:20:33;14.50;98.40
16412;DHT22;8315;52.104;6.304;2022-10-15T09:23:01;14.60;98.40
16412;DHT22;8315;52.104;6.304;2022-10-15T09:25:30;14.60;98.40
16412;DHT22;8315;52.104;6.304;2022-10-15T09:28:04;14.60;98.40
16412;DHT22;8315;52.104;6.304;2022-10-15T09:30:36;14.60;98.40
16412;DHT22;8315;52.104;6.304;2022-10-15T09:33:07;14.60;98.40
16412;DHT22;8315;52.104;6.304;2022-10-15T09:35:39;14.70;98.40
16412;DHT22;8315;52.104;6.304;2022-10-15T09:38:13;14.70;98.40
16412;DHT22;8315;52.104;6.304;2022-10-15T09:40:54;14.80;98.40
16412;DHT22;8315;52.104;6.304;2022-10-15T09:43:32;14.80;98.40
16412;DHT22;8315;52.104;6.304;2022-10-15T09:46:00;14.90;98.40
16412;DHT22;8315;52.104;6.304;2022-10-15T09:48:29;14.90;98.40
16412;DHT22;8315;52.104;6.304;2022-10-15T09:50:59;14.90;98.40
16412;DHT22;8315;52.104;6.304;2022-10-15T09:53:31;14.90;98.40
16412;DHT22;8315;52.104;6.304;2022-10-15T09:56:08;14.80;98.40
16412;DHT22;8315;52.104;6.304;2022-10-15T09:58:39;15.00;98.40
16412;DHT22;8315;52.104;6.304;2022-10-15T10:01:16;15.10;98.40
16412;DHT22;8315;52.104;6.304;2022-10-15T10:03:44;15.20;98.40
16412;DHT22;8315;52.104;6.304;2022-10-15T10:06:11;15.30;98.40
16412;DHT22;8315;52.104;6.304;2022-10-15T10:08:49;15.30;98.40
16412;DHT22;8315;52.104;6.304;2022-10-15T10:11:18;15.40;98.40
16412;DHT22;8315;52.104;6.304;2022-10-15T10:13:48;15.40;98.40
16412;DHT22;8315;52.104;6.304;2022-10-15T10:16:17;15.50;98.40
16412;DHT22;8315;52.104;6.304;2022-10-15T10:18:59;15.50;98.40
16412;DHT22;8315;52.104;6.304;2022-10-15T10:21:29;15.50;98.40
16412;DHT22;8315;52.104;6.304;2022-10-15T10:23:58;15.50;98.40
16412;DHT22;8315;52.104;6.304;2022-10-15T10:26:49;15.60;98.40
16412;DHT22;8315;52.104;6.304;2022-10-15T10:29:17;15.70;98.40
16412;DHT22;8315;52.104;6.304;2022-10-15T10:31:45;15.70;98.40
16412;DHT22;8315;52.104;6.304;2022-10-15T10:34:25;15.60;98.40
16412;DHT22;8315;52.104;6.304;2022-10-15T10:36:54;15.60;98.40
16412;DHT22;8315;52.104;6.304;2022-10-15T10:39:23;15.70;98.40
16412;DHT22;8315;52.104;6.304;2022-10-15T10:41:53;15.70;98.40
16412;DHT22;8315;52.104;6.304;2022-10-15T10:44:24;15.80;98.40
16412;DHT22;8315;52.104;6.304;2022-10-15T10:47:03;15.90;98.40
16412;DHT22;8315;52.104;6.304;2022-10-15T10:49:36;15.80;98.40
16412;DHT22;8315;52.104;6.304;2022-10-15T10:52:10;15.80;98.40
16412;DHT22;8315;52.104;6.304;2022-10-15T10:54:44;15.80;98.40
16412;DHT22;8315;52.104;6.304;2022-10-15T10:57:14;15.80;98.40
16412;DHT22;8315;52.104;6.304;2022-10-15T10:59:47;15.70;98.40
16412;DHT22;8315;52.104;6.304;2022-10-15T11:02:16;15.60;98.40
16412;DHT22;8315;52.104;6.304;2022-10-15T11:04:42;15.60;98.40
16412;DHT22;8315;52.104;6.304;2022-10-15T11:07:12;15.70;98.40
16412;DHT22;8315;52.104;6.304;2022-10-15T11:09:45;15.60;98.40
16412;DHT22;8315;52.104;6.304;2022-10-15T11:12:29;15.60;98.40
16412;DHT22;8315;52.104;6.304;2022-10-15T11:15:03;15.60;98.40
16412;DHT22;8315;52.104;6.304;2022-10-15T11:17:42;15.50;98.40
16412;DHT22;8315;52.104;6.304;2022-10-15T11:20:13;15.40;98.40
16412;DHT22;8315;52.104;6.304;2022-10-15T11:22:46;15.40;98.40
16412;DHT22;8315;52.104;6.304;2022-10-15T11:25:25;15.50;98.40
16412;DHT22;8315;52.104;6.304;2022-10-15T11:28:03;15.40;98.40
16412;DHT22;8315;52.104;6.304;2022-10-15T11:30:38;15.50;98.40
16412;DHT22;8315;52.104;6.304;2022-10-15T11:33:20;15.40;98.40
16412;DHT22;8315;52.104;6.304;2022-10-15T11:35:58;15.40;98.40
16412;DHT22;8315;52.104;6.304;2022-10-15T11:38:32;15.30;98.40
16412;DHT22;8315;52.104;6.304;2022-10-15T11:41:08;15.40;98.40
16412;DHT22;8315;52.104;6.304;2022-10-15T11:43:50;15.40;98.40
16412;DHT22;8315;52.104;6.304;2022-10-15T11:46:33;15.40;98.40
16412;DHT22;8315;52.104;6.304;2022-10-15T11:49:09;15.40;98.40
16412;DHT22;8315;52.104;6.304;2022-10-15T11:51:48;15.40;98.40
16412;DHT22;8315;52.104;6.304;2022-10-15T11:54:28;15.30;98.40
16412;DHT22;8315;52.104;6.304;2022-10-15T11:56:57;15.30;98.40
16412;DHT22;8315;52.104;6.304;2022-10-15T11:59:31;15.40;98.40
16412;DHT22;8315;52.104;6.304;2022-10-15T12:02:01;15.30;98.40
16412;DHT22;8315;52.104;6.304;2022-10-15T12:04:32;15.30;98.40
16412;DHT22;8315;52.104;6.304;2022-10-15T12:07:03;15.30;98.40
16412;DHT22;8315;52.104;6.304;2022-10-15T12:09:33;15.30;98.40
16412;DHT22;8315;52.104;6.304;2022-10-15T12:12:03;15.40;98.40
16412;DHT22;8315;52.104;6.304;2022-10-15T12:14:35;15.30;98.40
16412;DHT22;8315;52.104;6.304;2022-10-15T12:17:08;15.40;98.40
16412;DHT22;8315;52.104;6.304;2022-10-15T12:19:39;15.40;98.40
16412;DHT22;8315;52.104;6.304;2022-10-15T12:22:08;15.40;98.40
16412;DHT22;8315;52.104;6.304;2022-10-15T12:24:48;15.40;98.40
16412;DHT22;8315;52.104;6.304;2022-10-15T12:27:21;15.40;98.40
16412;DHT22;8315;52.104;6.304;2022-10-15T12:30:11;15.50;98.40
16412;DHT22;8315;52.104;6.304;2022-10-15T12:32:48;15.50;98.40
16412;DHT22;8315;52.104;6.304;2022-10-15T12:38:15;15.50;98.40
16412;DHT22;8315;52.104;6.304;2022-10-15T12:40:45;15.50;98.40
16412;DHT22;8315;52.104;6.304;2022-10-15T12:43:13;15.50;98.40
16412;DHT22;8315;52.104;6.304;2022-10-15T12:45:50;15.60;98.40
16412;DHT22;8315;52.104;6.304;2022-10-15T12:48:28;15.60;98.40
16412;DHT22;8315;52.104;6.304;2022-10-15T12:57:49;15.70;98.40
16412;DHT22;8315;52.104;6.304;2022-10-15T13:02:57;15.70;98.40
16412;DHT22;8315;52.104;6.304;2022-10-15T13:05:34;15.70;98.40
16412;DHT22;8315;52.104;6.304;2022-10-15T13:08:02;15.80;98.40
16412;DHT22;8315;52.104;6.304;2022-10-15T13:10:32;15.90;98.40
16412;DHT22;8315;52.104;6.304;2022-10-15T13:13:00;15.90;98.40
16412;DHT22;8315;52.104;6.304;2022-10-15T13:15:29;15.90;98.40
16412;DHT22;8315;52.104;6.304;2022-10-15T13:17:58;15.90;98.40
16412;DHT22;8315;52.104;6.304;2022-10-15T13:20:28;16.00;98.40
16412;DHT22;8315;52.104;6.304;2022-10-15T13:23:07;16.00;98.40
16412;DHT22;8315;52.104;6.304;2022-10-15T13:25:41;16.00;98.40
16412;DHT22;8315;52.104;6.304;2022-10-15T13:28:30;16.00;98.40
16412;DHT22;8315;52.104;6.304;2022-10-15T13:31:01;16.10;98.40
16412;DHT22;8315;52.104;6.304;2022-10-15T13:33:30;16.10;98.40
16412;DHT22;8315;52.104;6.304;2022-10-15T13:36:03;16.20;98.40
16412;DHT22;8315;52.104;6.304;2022-10-15T13:38:30;16.20;98.40
16412;DHT22;8315;52.104;6.304;2022-10-15T13:40:57;16.30;98.40
16412;DHT22;8315;52.104;6.304;2022-10-15T13:43:25;16.30;98.40
16412;DHT22;8315;52.104;6.304;2022-10-15T13:45:53;16.30;98.40
16412;DHT22;8315;52.104;6.304;2022-10-15T13:48:21;16.30;98.40
16412;DHT22;8315;52.104;6.304;2022-10-15T13:50:52;16.40;98.40
16412;DHT22;8315;52.104;6.304;2022-10-15T13:53:24;16.50;98.40
16412;DHT22;8315;52.104;6.304;2022-10-15T13:55:53;16.50;98.40
16412;DHT22;8315;52.104;6.304;2022-10-15T13:58:22;16.50;98.40
16412;DHT22;8315;52.104;6.304;2022-10-15T14:00:50;16.60;98.40
16412;DHT22;8315;52.104;6.304;2022-10-15T14:03:21;16.60;98.40
16412;DHT22;8315;52.104;6.304;2022-10-15T14:05:50;16.60;98.40
16412;DHT22;8315;52.104;6.304;2022-10-15T14:08:20;16.60;98.40
16412;DHT22;8315;52.104;6.304;2022-10-15T14:10:51;16.70;98.40
16412;DHT22;8315;52.104;6.304;2022-10-15T14:13:20;16.70;98.40
16412;DHT22;8315;52.104;6.304;2022-10-15T14:18:39;16.70;98.40
16412;DHT22;8315;52.104;6.304;2022-10-15T14:21:13;16.80;98.40
16412;DHT22;8315;52.104;6.304;2022-10-15T14:23:41;16.80;98.40
16412;DHT22;8315;52.104;6.304;2022-10-15T14:26:09;16.90;98.40
16412;DHT22;8315;52.104;6.304;2022-10-15T14:28:36;16.90;98.40
16412;DHT22;8315;52.104;6.304;2022-10-15T14:31:03;17.00;98.40
16412;DHT22;8315;52.104;6.304;2022-10-15T14:33:43;17.00;98.40
16412;DHT22;8315;52.104;6.304;2022-10-15T14:36:23;17.00;98.40
16412;DHT22;8315;52.104;6.304;2022-10-15T14:38:51;17.10;98.40
16412;DHT22;8315;52.104;6.304;2022-10-15T14:41:21;17.10;98.40
16412;DHT22;8315;52.104;6.304;2022-10-15T14:43:59;17.10;98.40
16412;DHT22;8315;52.104;6.304;2022-10-15T14:46:30;17.10;98.40
16412;DHT22;8315;52.104;6.304;2022-10-15T14:49:01;17.00;98.40
16412;DHT22;8315;52.104;6.304;2022-10-15T14:51:29;17.00;98.40
16412;DHT22;8315;52.104;6.304;2022-10-15T14:53:56;16.80;98.40
16412;DHT22;8315;52.104;6.304;2022-10-15T14:56:24;16.70;98.40
16412;DHT22;8315;52.104;6.304;2022-10-15T14:58:56;16.70;98.40
16412;DHT22;8315;52.104;6.304;2022-10-15T15:01:23;16.60;98.40
16412;DHT22;8315;52.104;6.304;2022-10-15T15:03:52;16.50;98.40
16412;DHT22;8315;52.104;6.304;2022-10-15T15:06:20;16.50;98.40
16412;DHT22;8315;52.104;6.304;2022-10-15T15:08:48;16.50;98.40
16412;DHT22;8315;52.104;6.304;2022-10-15T15:11:17;16.50;98.40
16412;DHT22;8315;52.104;6.304;2022-10-15T15:13:45;16.60;98.40
16412;DHT22;8315;52.104;6.304;2022-10-15T15:16:12;16.50;98.40
16412;DHT22;8315;52.104;6.304;2022-10-15T15:18:40;16.50;98.40
16412;DHT22;8315;52.104;6.304;2022-10-15T15:21:09;16.50;98.40
16412;DHT22;8315;52.104;6.304;2022-10-15T15:23:37;16.50;98.40
16412;DHT22;8315;52.104;6.304;2022-10-15T15:26:06;16.50;98.40
16412;DHT22;8315;52.104;6.304;2022-10-15T15:28:32;16.40;98.40
16412;DHT22;8315;52.104;6.304;2022-10-15T15:31:00;16.40;98.40
16412;DHT22;8315;52.104;6.304;2022-10-15T15:33:29;16.40;98.40
16412;DHT22;8315;52.104;6.304;2022-10-15T15:35:59;16.30;98.40
16412;DHT22;8315;52.104;6.304;2022-10-15T15:38:26;16.30;98.40
16412;DHT22;8315;52.104;6.304;2022-10-15T15:40:57;16.20;98.40
16412;DHT22;8315;52.104;6.304;2022-10-15T15:43:27;16.20;98.40
16412;DHT22;8315;52.104;6.304;2022-10-15T15:45:54;16.20;98.40
16412;DHT22;8315;52.104;6.304;2022-10-15T15:48:21;16.10;98.40
16412;DHT22;8315;52.104;6.304;2022-10-15T15:50:48;16.10;98.40
16412;DHT22;8315;52.104;6.304;2022-10-15T15:53:14;16.10;98.40
16412;DHT22;8315;52.104;6.304;2022-10-15T15:55:41;16.10;98.40
16412;DHT22;8315;52.104;6.304;2022-10-15T15:58:08;16.00;98.40
16412;DHT22;8315;52.104;6.304;2022-10-15T16:00:36;16.00;98.40
16412;DHT22;8315;52.104;6.304;2022-10-15T16:03:03;16.00;98.40
16412;DHT22;8315;52.104;6.304;2022-10-15T16:05:30;16.00;98.40
16412;DHT22;8315;52.104;6.304;2022-10-15T16:07:56;16.00;98.40
16412;DHT22;8315;52.104;6.304;2022-10-15T16:10:23;16.00;98.40
16412;DHT22;8315;52.104;6.304;2022-10-15T16:12:50;16.00;98.40
16412;DHT22;8315;52.104;6.304;2022-10-15T16:15:17;15.90;98.40
16412;DHT22;8315;52.104;6.304;2022-10-15T16:17:45;16.00;98.40
16412;DHT22;8315;52.104;6.304;2022-10-15T16:20:12;16.00;98.40
16412;DHT22;8315;52.104;6.304;2022-10-15T16:22:39;15.90;98.40
16412;DHT22;8315;52.104;6.304;2022-10-15T16:25:07;15.90;98.40
16412;DHT22;8315;52.104;6.304;2022-10-15T16:27:34;15.90;98.40
16412;DHT22;8315;52.104;6.304;2022-10-15T16:30:01;15.80;98.40
16412;DHT22;8315;52.104;6.304;2022-10-15T16:32:28;15.90;98.40
16412;DHT22;8315;52.104;6.304;2022-10-15T16:34:56;15.80;98.40
16412;DHT22;8315;52.104;6.304;2022-10-15T16:37:23;15.80;98.40